sensor_id;sensor_type;location;lat;lon;timestamp;pressure;altitude;pressure_sealevel;temperature;humidity
57232;BME280;43488;46.934;8.276;2023-09-19T00:05:25;96473.78;;;17.29;100.00
57232;BME280;43488;46.934;8.276;2023-09-19T00:07:58;96471.13;;;17.29;100.00
57232;BME280;43488;46.934;8.276;2023-09-19T00:23:27;96487.31;;;17.27;100.00
57232;BME280;43488;46.934;8.276;2023-09-19T00:25:59;96475.88;;;17.27;100.00
57232;BME280;43488;46.934;8.276;2023-09-19T00:28:29;96479.81;;;17.19;100.00
57232;BME280;43488;46.934;8.276;2023-09-19T00:30:58;96472.63;;;17.20;100.00
57232;BME280;43488;46.934;8.276;2023-09-19T00:33:30;96480.59;;;17.20;100.00
57232;BME280;43488;46.934;8.276;2023-09-19T00:35:57;96473.88;;;17.12;100.00
57232;BME280;43488;46.934;8.276;2023-09-19T00:42:30;96471.31;;;17.00;100.00
57232;BME280;43488;46.934;8.276;2023-09-19T00:45:43;96470.28;;;17.01;100.00
57232;BME280;43488;46.934;8.276;2023-09-19T00:48:50;96460.47;;;17.02;100.00
57232;BME280;43488;46.934;8.276;2023-09-19T00:51:18;96465.28;;;17.05;100.00
57232;BME280;43488;46.934;8.276;2023-09-19T00:53:49;96471.31;;;17.00;100.00
57232;BME280;43488;46.934;8.276;2023-09-19T00:58:49;96464.09;;;16.96;100.00
57232;BME280;43488;46.934;8.276;2023-09-19T01:01:25;96466.91;;;16.84;100.00
57232;BME280;43488;46.934;8.276;2023-09-19T01:06:56;96464.78;;;16.86;100.00
57232;BME280;43488;46.934;8.276;2023-09-19T01:09:24;96458.97;;;16.89;100.00
57232;BME280;43488;46.934;8.276;2023-09-19T01:15:31;96453.66;;;16.89;100.00
57232;BME280;43488;46.934;8.276;2023-09-19T01:29:49;96466.09;;;16.84;100.00
57232;BME280;43488;46.934;8.276;2023-09-19T01:39:30;96457.88;;;16.85;100.00
57232;BME280;43488;46.934;8.276;2023-09-19T01:46:34;96464.97;;;16.80;100.00
57232;BME280;43488;46.934;8.276;2023-09-19T01:52:12;96477.72;;;16.77;100.00
57232;BME280;43488;46.934;8.276;2023-09-19T01:54:55;96479.50;;;16.72;100.00
57232;BME280;43488;46.934;8.276;2023-09-19T01:57:33;96486.41;;;16.73;100.00
57232;BME280;43488;46.934;8.276;2023-09-19T02:00:52;96492.84;;;16.77;100.00
57232;BME280;43488;46.934;8.276;2023-09-19T02:05:55;96495.81;;;16.81;100.00
57232;BME280;43488;46.934;8.276;2023-09-19T02:08:28;96486.22;;;16.80;100.00
57232;BME280;43488;46.934;8.276;2023-09-19T02:10:58;96490.75;;;16.79;100.00
57232;BME280;43488;46.934;8.276;2023-09-19T02:13:27;96480.63;;;16.76;100.00
57232;BME280;43488;46.934;8.276;2023-09-19T02:15:55;96477.97;;;16.76;100.00
57232;BME280;43488;46.934;8.276;2023-09-19T02:18:22;96485.69;;;16.77;100.00
57232;BME280;43488;46.934;8.276;2023-09-19T02:20:50;96477.47;;;16.79;100.00
57232;BME280;43488;46.934;8.276;2023-09-19T02:23:20;96487.28;;;16.78;100.00
57232;BME280;43488;46.934;8.276;2023-09-19T02:25:54;96487.84;;;16.81;100.00
57232;BME280;43488;46.934;8.276;2023-09-19T02:28:22;96490.81;;;16.84;100.00
57232;BME280;43488;46.934;8.276;2023-09-19T02:30:50;96480.19;;;16.84;100.00
57232;BME280;43488;46.934;8.276;2023-09-19T02:33:17;96479.00;;;16.75;100.00
57232;BME280;43488;46.934;8.276;2023-09-19T02:35:44;96478.69;;;16.71;100.00
57232;BME280;43488;46.934;8.276;2023-09-19T02:38:26;96480.53;;;16.71;100.00
57232;BME280;43488;46.934;8.276;2023-09-19T02:48:36;96494.47;;;16.78;100.00
57232;BME280;43488;46.934;8.276;2023-09-19T02:54:05;96491.81;;;16.78;100.00
57232;BME280;43488;46.934;8.276;2023-09-19T02:56:33;96487.00;;;16.75;100.00
57232;BME280;43488;46.934;8.276;2023-09-19T03:02:56;96495.50;;;16.77;100.00
57232;BME280;43488;46.934;8.276;2023-09-19T03:08:01;96496.56;;;16.76;100.00
57232;BME280;43488;46.934;8.276;2023-09-19T03:11:16;96500.84;;;16.77;100.00
57232;BME280;43488;46.934;8.276;2023-09-19T03:13:45;96509.78;;;16.71;100.00
57232;BME280;43488;46.934;8.276;2023-09-19T03:19:44;96514.03;;;16.72;100.00
57232;BME280;43488;46.934;8.276;2023-09-19T03:22:11;96509.22;;;16.69;100.00
57232;BME280;43488;46.934;8.276;2023-09-19T03:24:39;96513.16;;;16.66;100.00
57232;BME280;43488;46.934;8.276;2023-09-19T03:27:28;96516.06;;;16.65;100.00
57232;BME280;43488;46.934;8.276;2023-09-19T03:29:55;96511.78;;;16.64;100.00
57232;BME280;43488;46.934;8.276;2023-09-19T03:35:00;96518.00;;;16.69;100.00
57232;BME280;43488;46.934;8.276;2023-09-19T03:38:03;96522.53;;;16.69;100.00
57232;BME280;43488;46.934;8.276;2023-09-19T03:40:47;96520.88;;;16.68;100.00
57232;BME280;43488;46.934;8.276;2023-09-19T03:43:14;96523.88;;;16.71;100.00
57232;BME280;43488;46.934;8.276;2023-09-19T03:45:45;96515.66;;;16.73;100.00
57232;BME280;43488;46.934;8.276;2023-09-19T03:48:14;96522.09;;;16.77;100.00
57232;BME280;43488;46.934;8.276;2023-09-19T03:50:41;96518.63;;;16.76;100.00
57232;BME280;43488;46.934;8.276;2023-09-19T03:53:10;96519.69;;;16.75;100.00
57232;BME280;43488;46.934;8.276;2023-09-19T03:58:18;96515.72;;;16.78;100.00
57232;BME280;43488;46.934;8.276;2023-09-19T04:00:46;96525.00;;;16.75;100.00
57232;BME280;43488;46.934;8.276;2023-09-19T04:03:13;96524.13;;;16.70;100.00
57232;BME280;43488;46.934;8.276;2023-09-19T04:05:47;96524.84;;;16.65;100.00
57232;BME280;43488;46.934;8.276;2023-09-19T04:16:22;96511.09;;;16.52;100.00
57232;BME280;43488;46.934;8.276;2023-09-19T04:18:52;96502.31;;;16.51;100.00
57232;BME280;43488;46.934;8.276;2023-09-19T04:21:19;96499.66;;;16.51;100.00
57232;BME280;43488;46.934;8.276;2023-09-19T04:28:26;96497.78;;;16.52;100.00
57232;BME280;43488;46.934;8.276;2023-09-19T04:30:56;96492.47;;;16.52;100.00
57232;BME280;43488;46.934;8.276;2023-09-19T04:33:25;96489.31;;;16.55;100.00
57232;BME280;43488;46.934;8.276;2023-09-19T04:35:54;96495.69;;;16.54;100.00
57232;BME280;43488;46.934;8.276;2023-09-19T04:42:36;96497.28;;;16.55;100.00
57232;BME280;43488;46.934;8.276;2023-09-19T04:45:03;96496.50;;;16.54;100.00
57232;BME280;43488;46.934;8.276;2023-09-19T04:47:34;96494.59;;;16.49;100.00
57232;BME280;43488;46.934;8.276;2023-09-19T04:52:50;96497.75;;;16.46;100.00
57232;BME280;43488;46.934;8.276;2023-09-19T04:55:18;96494.59;;;16.49;100.00
57232;BME280;43488;46.934;8.276;2023-09-19T04:57:48;96499.59;;;16.46;100.00
57232;BME280;43488;46.934;8.276;2023-09-19T05:00:20;96506.72;;;16.45;100.00
57232;BME280;43488;46.934;8.276;2023-09-19T05:02:52;96510.44;;;16.44;100.00
57232;BME280;43488;46.934;8.276;2023-09-19T05:09:13;96526.97;;;16.46;100.00
57232;BME280;43488;46.934;8.276;2023-09-19T05:15:06;96528.38;;;16.54;100.00
57232;BME280;43488;46.934;8.276;2023-09-19T05:17:35;96532.69;;;16.55;100.00
57232;BME280;43488;46.934;8.276;2023-09-19T05:20:03;96539.59;;;16.56;100.00
57232;BME280;43488;46.934;8.276;2023-09-19T05:23:04;96541.66;;;16.54;100.00
57232;BME280;43488;46.934;8.276;2023-09-19T05:35:24;96545.56;;;16.46;100.00
57232;BME280;43488;46.934;8.276;2023-09-19T05:37:54;96551.44;;;16.48;100.00
57232;BME280;43488;46.934;8.276;2023-09-19T05:40:31;96553.59;;;16.52;100.00
57232;BME280;43488;46.934;8.276;2023-09-19T05:42:59;96559.25;;;16.55;100.00
57232;BME280;43488;46.934;8.276;2023-09-19T05:45:26;96564.88;;;16.59;100.00
57232;BME280;43488;46.934;8.276;2023-09-19T05:47:54;96564.13;;;16.63;100.00
57232;BME280;43488;46.934;8.276;2023-09-19T05:50:41;96564.13;;;16.63;100.00
57232;BME280;43488;46.934;8.276;2023-09-19T05:53:08;96569.44;;;16.63;100.00
57232;BME280;43488;46.934;8.276;2023-09-19T05:58:10;96578.88;;;16.71;100.00
57232;BME280;43488;46.934;8.276;2023-09-19T06:04:07;96582.69;;;16.75;100.00
57232;BME280;43488;46.934;8.276;2023-09-19T06:11:38;96599.25;;;16.82;100.00
57232;BME280;43488;46.934;8.276;2023-09-19T06:14:41;96597.41;;;16.83;100.00
57232;BME280;43488;46.934;8.276;2023-09-19T06:24:03;96602.41;;;16.79;100.00
57232;BME280;43488;46.934;8.276;2023-09-19T06:26:30;96602.97;;;16.81;100.00
57232;BME280;43488;46.934;8.276;2023-09-19T06:28:58;96601.44;;;16.85;100.00
57232;BME280;43488;46.934;8.276;2023-09-19T06:31:29;96608.19;;;16.93;100.00
57232;BME280;43488;46.934;8.276;2023-09-19T06:33:58;96601.56;;;16.95;100.00
57232;BME280;43488;46.934;8.276;2023-09-19T06:36:52;96603.44;;;16.95;100.00
57232;BME280;43488;46.934;8.276;2023-09-19T06:42:02;96599.47;;;16.97;100.00
57232;BME280;43488;46.934;8.276;2023-09-19T06:44:30;96608.09;;;17.04;100.00
57232;BME280;43488;46.934;8.276;2023-09-19T06:50:09;96612.81;;;17.19;100.00
57232;BME280;43488;46.934;8.276;2023-09-19T06:52:41;96614.41;;;17.20;100.00
57232;BME280;43488;46.934;8.276;2023-09-19T06:55:09;96623.50;;;17.24;100.00
57232;BME280;43488;46.934;8.276;2023-09-19T06:58:30;96620.41;;;17.32;100.00
57232;BME280;43488;46.934;8.276;2023-09-19T07:01:07;96619.63;;;17.32;100.00
57232;BME280;43488;46.934;8.276;2023-09-19T07:03:34;96618.06;;;17.36;100.00
57232;BME280;43488;46.934;8.276;2023-09-19T07:06:31;96622.09;;;17.39;100.00
57232;BME280;43488;46.934;8.276;2023-09-19T07:08:59;96629.31;;;17.43;100.00
57232;BME280;43488;46.934;8.276;2023-09-19T07:14:03;96631.31;;;17.53;100.00
57232;BME280;43488;46.934;8.276;2023-09-19T07:19:09;96631.16;;;17.64;100.00
57232;BME280;43488;46.934;8.276;2023-09-19T07:21:37;96631.34;;;17.75;100.00
57232;BME280;43488;46.934;8.276;2023-09-19T07:24:06;96631.44;;;17.85;100.00
57232;BME280;43488;46.934;8.276;2023-09-19T07:26:33;96626.72;;;17.92;100.00
57232;BME280;43488;46.934;8.276;2023-09-19T07:32:27;96622.59;;;18.06;100.00
57232;BME280;43488;46.934;8.276;2023-09-19T07:37:29;96635.75;;;18.18;100.00
57232;BME280;43488;46.934;8.276;2023-09-19T07:40:59;96639.34;;;18.29;100.00
57232;BME280;43488;46.934;8.276;2023-09-19T07:43:26;96642.56;;;18.31;100.00
57232;BME280;43488;46.934;8.276;2023-09-19T07:45:57;96644.06;;;18.48;100.00
57232;BME280;43488;46.934;8.276;2023-09-19T07:48:25;96644.97;;;18.64;100.00
57232;BME280;43488;46.934;8.276;2023-09-19T07:50:52;96643.47;;;18.73;100.00
57232;BME280;43488;46.934;8.276;2023-09-19T07:53:19;96636.84;;;18.76;99.30
57232;BME280;43488;46.934;8.276;2023-09-19T07:57:12;96641.06;;;18.72;96.24
57232;BME280;43488;46.934;8.276;2023-09-19T07:59:43;96639.78;;;18.80;96.74
57232;BME280;43488;46.934;8.276;2023-09-19T08:02:10;96643.78;;;18.82;97.52
57232;BME280;43488;46.934;8.276;2023-09-19T08:04:43;96643.56;;;18.84;96.00
57232;BME280;43488;46.934;8.276;2023-09-19T08:07:20;96647.25;;;18.83;97.75
57232;BME280;43488;46.934;8.276;2023-09-19T08:09:48;96640.31;;;18.77;96.41
57232;BME280;43488;46.934;8.276;2023-09-19T08:12:16;96646.19;;;18.79;97.87
57232;BME280;43488;46.934;8.276;2023-09-19T08:14:53;96647.91;;;18.95;96.28
57232;BME280;43488;46.934;8.276;2023-09-19T08:17:22;96651.69;;;19.04;96.20
57232;BME280;43488;46.934;8.276;2023-09-19T08:20:25;96656.97;;;18.99;94.72
57232;BME280;43488;46.934;8.276;2023-09-19T08:23:23;96651.16;;;19.02;93.36
57232;BME280;43488;46.934;8.276;2023-09-19T08:25:50;96653.84;;;19.07;94.67
57232;BME280;43488;46.934;8.276;2023-09-19T08:28:35;96659.06;;;18.92;99.51
57232;BME280;43488;46.934;8.276;2023-09-19T08:31:48;96659.66;;;18.99;100.00
57232;BME280;43488;46.934;8.276;2023-09-19T08:34:16;96666.53;;;18.90;100.00
57232;BME280;43488;46.934;8.276;2023-09-19T08:36:43;96665.44;;;18.86;100.00
57232;BME280;43488;46.934;8.276;2023-09-19T08:39:13;96663.25;;;18.83;100.00
57232;BME280;43488;46.934;8.276;2023-09-19T08:41:41;96667.78;;;18.82;100.00
57232;BME280;43488;46.934;8.276;2023-09-19T08:44:08;96663.53;;;18.81;100.00
57232;BME280;43488;46.934;8.276;2023-09-19T08:47:34;96670.47;;;18.82;100.00
57232;BME280;43488;46.934;8.276;2023-09-19T08:51:39;96668.06;;;18.81;99.44
57232;BME280;43488;46.934;8.276;2023-09-19T08:56:46;96667.59;;;18.89;99.89
57232;BME280;43488;46.934;8.276;2023-09-19T09:00:09;96670.38;;;19.04;98.53
57232;BME280;43488;46.934;8.276;2023-09-19T09:03:20;96671.44;;;19.08;99.00
57232;BME280;43488;46.934;8.276;2023-09-19T09:06:41;96672.09;;;19.25;97.80
57232;BME280;43488;46.934;8.276;2023-09-19T09:09:12;96676.16;;;19.38;95.38
57232;BME280;43488;46.934;8.276;2023-09-19T09:11:40;96675.13;;;19.44;94.14
57232;BME280;43488;46.934;8.276;2023-09-19T09:14:08;96665.91;;;19.57;93.41
57232;BME280;43488;46.934;8.276;2023-09-19T09:16:36;96662.84;;;19.43;94.71
57232;BME280;43488;46.934;8.276;2023-09-19T09:19:05;96664.50;;;19.49;94.39
57232;BME280;43488;46.934;8.276;2023-09-19T09:21:33;96671.72;;;19.54;93.61
57232;BME280;43488;46.934;8.276;2023-09-19T09:24:56;96672.91;;;19.78;92.50
57232;BME280;43488;46.934;8.276;2023-09-19T09:27:31;96671.28;;;19.72;94.56
57232;BME280;43488;46.934;8.276;2023-09-19T09:33:52;96672.69;;;19.90;94.80
57232;BME280;43488;46.934;8.276;2023-09-19T09:36:39;96669.28;;;20.05;93.00
57232;BME280;43488;46.934;8.276;2023-09-19T09:40:02;96677.56;;;20.03;94.43
57232;BME280;43488;46.934;8.276;2023-09-19T09:43:35;96673.03;;;20.14;88.53
57232;BME280;43488;46.934;8.276;2023-09-19T09:46:18;96667.97;;;20.23;88.68
57232;BME280;43488;46.934;8.276;2023-09-19T09:51:32;96677.88;;;20.37;87.08
57232;BME280;43488;46.934;8.276;2023-09-19T09:56:59;96668.53;;;20.35;87.19
57232;BME280;43488;46.934;8.276;2023-09-19T10:01:55;96664.53;;;20.48;88.79
57232;BME280;43488;46.934;8.276;2023-09-19T10:05:03;96668.78;;;20.33;85.53
57232;BME280;43488;46.934;8.276;2023-09-19T10:07:42;96666.09;;;20.23;83.29
57232;BME280;43488;46.934;8.276;2023-09-19T10:11:18;96665.03;;;20.34;86.50
57232;BME280;43488;46.934;8.276;2023-09-19T10:14:27;96666.19;;;20.49;87.81
57232;BME280;43488;46.934;8.276;2023-09-19T10:27:25;96661.09;;;20.72;83.24
57232;BME280;43488;46.934;8.276;2023-09-19T10:29:54;96658.66;;;21.07;85.78
57232;BME280;43488;46.934;8.276;2023-09-19T10:32:26;96662.63;;;21.24;81.20
57232;BME280;43488;46.934;8.276;2023-09-19T10:34:55;96657.28;;;21.29;82.40
57232;BME280;43488;46.934;8.276;2023-09-19T10:37:24;96658.53;;;21.68;81.53
57232;BME280;43488;46.934;8.276;2023-09-19T10:39:57;96657.44;;;21.69;78.24
57232;BME280;43488;46.934;8.276;2023-09-19T10:46:02;96644.47;;;21.91;75.16
57232;BME280;43488;46.934;8.276;2023-09-19T10:48:32;96651.47;;;21.87;74.95
57232;BME280;43488;46.934;8.276;2023-09-19T10:51:18;96642.47;;;22.22;76.57
57232;BME280;43488;46.934;8.276;2023-09-19T10:54:34;96652.31;;;22.32;74.15
57232;BME280;43488;46.934;8.276;2023-09-19T10:57:22;96643.41;;;22.41;70.73
57232;BME280;43488;46.934;8.276;2023-09-19T11:00:05;96645.25;;;22.75;73.63
57232;BME280;43488;46.934;8.276;2023-09-19T11:03:24;96640.47;;;22.72;68.26
57232;BME280;43488;46.934;8.276;2023-09-19T11:06:32;96628.16;;;23.00;68.49
57232;BME280;43488;46.934;8.276;2023-09-19T11:09:04;96624.59;;;23.10;69.85
57232;BME280;43488;46.934;8.276;2023-09-19T11:11:46;96629.91;;;23.15;68.70
57232;BME280;43488;46.934;8.276;2023-09-19T11:14:40;96633.81;;;23.51;65.12
57232;BME280;43488;46.934;8.276;2023-09-19T11:23:34;96619.63;;;23.46;66.42
57232;BME280;43488;46.934;8.276;2023-09-19T11:26:42;96611.13;;;23.63;65.30
57232;BME280;43488;46.934;8.276;2023-09-19T11:39:38;96611.75;;;23.78;62.73
57232;BME280;43488;46.934;8.276;2023-09-19T11:42:47;96601.94;;;23.88;62.31
57232;BME280;43488;46.934;8.276;2023-09-19T11:50:18;96612.09;;;24.28;62.07
57232;BME280;43488;46.934;8.276;2023-09-19T11:52:51;96606.53;;;24.25;60.04
57232;BME280;43488;46.934;8.276;2023-09-19T11:55:42;96603.88;;;24.57;59.11
57232;BME280;43488;46.934;8.276;2023-09-19T11:58:12;96603.88;;;24.57;59.94
57232;BME280;43488;46.934;8.276;2023-09-19T12:00:42;96603.69;;;24.67;58.49
57232;BME280;43488;46.934;8.276;2023-09-19T12:03:12;96598.00;;;25.02;58.27
57232;BME280;43488;46.934;8.276;2023-09-19T12:06:11;96606.25;;;25.24;57.82
57232;BME280;43488;46.934;8.276;2023-09-19T12:08:42;96604.81;;;25.13;54.10
57232;BME280;43488;46.934;8.276;2023-09-19T12:11:31;96594.25;;;25.30;56.30
57232;BME280;43488;46.934;8.276;2023-09-19T12:14:02;96585.66;;;25.14;54.93
57232;BME280;43488;46.934;8.276;2023-09-19T12:17:16;96585.97;;;25.13;58.08
57232;BME280;43488;46.934;8.276;2023-09-19T12:19:55;96583.25;;;25.40;57.18
57232;BME280;43488;46.934;8.276;2023-09-19T12:22:23;96587.56;;;25.41;55.99
57232;BME280;43488;46.934;8.276;2023-09-19T12:24:52;96580.19;;;25.61;54.28
57232;BME280;43488;46.934;8.276;2023-09-19T12:27:21;96572.41;;;25.45;56.35
57232;BME280;43488;46.934;8.276;2023-09-19T12:29:50;96577.88;;;25.40;55.27
57232;BME280;43488;46.934;8.276;2023-09-19T12:32:35;96573.50;;;25.44;54.24
57232;BME280;43488;46.934;8.276;2023-09-19T12:35:08;96565.09;;;25.46;53.73
57232;BME280;43488;46.934;8.276;2023-09-19T12:37:43;96558.97;;;25.68;54.63
57232;BME280;43488;46.934;8.276;2023-09-19T12:40:13;96560.44;;;26.01;53.78
57232;BME280;43488;46.934;8.276;2023-09-19T12:42:58;96553.03;;;26.07;53.69
57232;BME280;43488;46.934;8.276;2023-09-19T12:45:26;96563.38;;;25.77;53.04
57232;BME280;43488;46.934;8.276;2023-09-19T12:51:35;96554.47;;;25.91;51.75
57232;BME280;43488;46.934;8.276;2023-09-19T12:56:40;96543.34;;;25.56;53.36
57232;BME280;43488;46.934;8.276;2023-09-19T12:59:13;96547.19;;;25.77;53.16
57232;BME280;43488;46.934;8.276;2023-09-19T13:01:46;96549.72;;;25.74;52.60
57232;BME280;43488;46.934;8.276;2023-09-19T13:04:19;96539.91;;;25.78;53.11
57232;BME280;43488;46.934;8.276;2023-09-19T13:06:47;96530.75;;;25.79;51.79
57232;BME280;43488;46.934;8.276;2023-09-19T13:09:17;96533.63;;;25.83;53.64
57232;BME280;43488;46.934;8.276;2023-09-19T13:11:54;96535.22;;;25.70;53.37
57232;BME280;43488;46.934;8.276;2023-09-19T13:14:22;96529.78;;;25.97;53.23
57232;BME280;43488;46.934;8.276;2023-09-19T13:25:21;96519.75;;;25.75;52.19
57232;BME280;43488;46.934;8.276;2023-09-19T13:27:53;96523.44;;;25.66;51.69
57232;BME280;43488;46.934;8.276;2023-09-19T13:36:35;96511.53;;;24.89;52.90
57232;BME280;43488;46.934;8.276;2023-09-19T13:39:04;96506.25;;;25.12;52.92
57232;BME280;43488;46.934;8.276;2023-09-19T13:41:33;96509.84;;;25.07;53.20
57232;BME280;43488;46.934;8.276;2023-09-19T13:44:00;96496.06;;;25.36;52.90
57232;BME280;43488;46.934;8.276;2023-09-19T13:46:27;96493.47;;;25.31;52.11
57232;BME280;43488;46.934;8.276;2023-09-19T13:48:55;96494.56;;;25.30;51.74
57232;BME280;43488;46.934;8.276;2023-09-19T13:51:22;96503.22;;;25.55;52.33
57232;BME280;43488;46.934;8.276;2023-09-19T13:53:50;96503.59;;;25.62;52.85
57232;BME280;43488;46.934;8.276;2023-09-19T13:58:56;96488.50;;;25.74;51.78
57232;BME280;43488;46.934;8.276;2023-09-19T14:10:25;96483.06;;;26.11;50.89
57232;BME280;43488;46.934;8.276;2023-09-19T14:12:54;96486.38;;;26.30;50.86
57232;BME280;43488;46.934;8.276;2023-09-19T14:15:22;96479.69;;;25.83;50.77
57232;BME280;43488;46.934;8.276;2023-09-19T14:18:34;96478.81;;;25.96;50.01
57232;BME280;43488;46.934;8.276;2023-09-19T14:21:07;96480.63;;;26.00;49.73
57232;BME280;43488;46.934;8.276;2023-09-19T14:24:07;96479.16;;;26.17;49.92
57232;BME280;43488;46.934;8.276;2023-09-19T14:26:36;96478.22;;;26.21;49.15
57232;BME280;43488;46.934;8.276;2023-09-19T14:29:03;96474.06;;;25.93;49.15
57232;BME280;43488;46.934;8.276;2023-09-19T14:31:31;96465.72;;;25.80;49.94
57232;BME280;43488;46.934;8.276;2023-09-19T14:34:47;96473.16;;;25.97;49.39
57232;BME280;43488;46.934;8.276;2023-09-19T14:37:15;96477.00;;;25.69;51.54
57232;BME280;43488;46.934;8.276;2023-09-19T14:43:19;96472.91;;;25.35;54.00
57232;BME280;43488;46.934;8.276;2023-09-19T14:45:48;96461.56;;;24.83;55.17
57232;BME280;43488;46.934;8.276;2023-09-19T14:48:15;96463.84;;;24.90;54.79
57232;BME280;43488;46.934;8.276;2023-09-19T14:50:43;96471.69;;;24.59;55.43
57232;BME280;43488;46.934;8.276;2023-09-19T14:53:11;96460.84;;;24.64;56.61
57232;BME280;43488;46.934;8.276;2023-09-19T14:55:39;96457.75;;;24.84;57.67
57232;BME280;43488;46.934;8.276;2023-09-19T14:58:11;96463.97;;;24.71;57.69
57232;BME280;43488;46.934;8.276;2023-09-19T15:00:39;96458.88;;;24.83;56.58
57232;BME280;43488;46.934;8.276;2023-09-19T15:03:06;96453.75;;;24.68;55.60
57232;BME280;43488;46.934;8.276;2023-09-19T15:05:37;96455.75;;;24.49;56.00
57232;BME280;43488;46.934;8.276;2023-09-19T15:08:06;96456.09;;;24.28;55.91
57232;BME280;43488;46.934;8.276;2023-09-19T15:10:34;96458.28;;;24.26;56.66
57232;BME280;43488;46.934;8.276;2023-09-19T15:13:02;96457.78;;;24.24;57.40
57232;BME280;43488;46.934;8.276;2023-09-19T15:15:33;96451.09;;;24.22;57.19
57232;BME280;43488;46.934;8.276;2023-09-19T15:18:09;96457.25;;;24.08;58.48
57232;BME280;43488;46.934;8.276;2023-09-19T15:20:44;96462.19;;;24.01;59.14
57232;BME280;43488;46.934;8.276;2023-09-19T15:23:56;96456.34;;;23.80;60.29
57232;BME280;43488;46.934;8.276;2023-09-19T15:26:24;96449.75;;;23.73;61.02
57232;BME280;43488;46.934;8.276;2023-09-19T15:28:53;96454.38;;;23.67;61.38
57232;BME280;43488;46.934;8.276;2023-09-19T15:31:21;96451.97;;;23.84;60.06
57232;BME280;43488;46.934;8.276;2023-09-19T15:34:36;96445.78;;;23.84;58.63
57232;BME280;43488;46.934;8.276;2023-09-19T15:37:03;96449.94;;;23.76;59.32
57232;BME280;43488;46.934;8.276;2023-09-19T15:39:31;96452.09;;;23.61;60.96
57232;BME280;43488;46.934;8.276;2023-09-19T15:42:07;96444.84;;;23.56;62.70
57232;BME280;43488;46.934;8.276;2023-09-19T15:44:36;96445.22;;;23.31;64.14
57232;BME280;43488;46.934;8.276;2023-09-19T15:47:04;96456.19;;;23.15;63.88
57232;BME280;43488;46.934;8.276;2023-09-19T15:49:50;96450.34;;;23.08;64.48
57232;BME280;43488;46.934;8.276;2023-09-19T15:52:23;96446.88;;;23.08;65.20
57232;BME280;43488;46.934;8.276;2023-09-19T15:54:53;96446.13;;;23.02;65.89
57232;BME280;43488;46.934;8.276;2023-09-19T15:57:22;96455.41;;;22.91;66.14
57232;BME280;43488;46.934;8.276;2023-09-19T15:59:52;96451.56;;;22.97;67.41
57232;BME280;43488;46.934;8.276;2023-09-19T16:02:21;96458.09;;;22.91;67.83
57232;BME280;43488;46.934;8.276;2023-09-19T16:04:48;96453.06;;;22.84;70.70
57232;BME280;43488;46.934;8.276;2023-09-19T16:07:15;96450.25;;;22.70;71.69
57232;BME280;43488;46.934;8.276;2023-09-19T16:09:43;96451.19;;;22.56;72.50
57232;BME280;43488;46.934;8.276;2023-09-19T16:12:44;96447.97;;;22.59;72.49
57232;BME280;43488;46.934;8.276;2023-09-19T16:15:30;96451.97;;;22.61;74.16
57232;BME280;43488;46.934;8.276;2023-09-19T16:18:02;96447.22;;;22.53;72.31
57232;BME280;43488;46.934;8.276;2023-09-19T16:20:33;96453.88;;;22.56;72.01
57232;BME280;43488;46.934;8.276;2023-09-19T16:23:00;96459.25;;;22.56;73.98
57232;BME280;43488;46.934;8.276;2023-09-19T16:25:29;96459.34;;;22.46;73.06
57232;BME280;43488;46.934;8.276;2023-09-19T16:27:59;96453.78;;;22.42;74.04
57232;BME280;43488;46.934;8.276;2023-09-19T16:30:28;96460.41;;;22.50;71.79
57232;BME280;43488;46.934;8.276;2023-09-19T16:32:56;96458.78;;;22.49;72.42
57232;BME280;43488;46.934;8.276;2023-09-19T16:35:23;96456.16;;;22.43;71.58
57232;BME280;43488;46.934;8.276;2023-09-19T16:37:51;96451.72;;;22.34;70.49
57232;BME280;43488;46.934;8.276;2023-09-19T16:40:19;96455.50;;;22.28;70.70
57232;BME280;43488;46.934;8.276;2023-09-19T16:42:47;96455.91;;;22.16;73.71
57232;BME280;43488;46.934;8.276;2023-09-19T16:45:15;96456.75;;;22.06;75.60
57232;BME280;43488;46.934;8.276;2023-09-19T16:47:42;96459.53;;;21.96;76.15
57232;BME280;43488;46.934;8.276;2023-09-19T16:53:29;96460.22;;;21.73;78.37
57232;BME280;43488;46.934;8.276;2023-09-19T16:56:14;96460.22;;;21.78;79.19
57232;BME280;43488;46.934;8.276;2023-09-19T16:59:08;96468.34;;;21.63;79.75
57232;BME280;43488;46.934;8.276;2023-09-19T17:01:43;96466.19;;;21.65;80.44
57232;BME280;43488;46.934;8.276;2023-09-19T17:04:42;96472.03;;;21.72;79.53
57232;BME280;43488;46.934;8.276;2023-09-19T17:07:10;96461.81;;;21.74;78.97
57232;BME280;43488;46.934;8.276;2023-09-19T17:09:38;96466.66;;;21.77;79.63
57232;BME280;43488;46.934;8.276;2023-09-19T17:12:06;96471.31;;;21.61;78.59
57232;BME280;43488;46.934;8.276;2023-09-19T17:14:34;96466.56;;;21.48;78.66
57232;BME280;43488;46.934;8.276;2023-09-19T17:17:42;96464.78;;;21.33;78.70
57232;BME280;43488;46.934;8.276;2023-09-19T17:20:32;96475.78;;;21.26;79.21
57232;BME280;43488;46.934;8.276;2023-09-19T17:23:03;96473.66;;;21.18;80.64
57232;BME280;43488;46.934;8.276;2023-09-19T17:25:31;96472.34;;;21.11;80.75
57232;BME280;43488;46.934;8.276;2023-09-19T17:28:00;96479.91;;;21.04;81.20
57232;BME280;43488;46.934;8.276;2023-09-19T17:30:31;96480.47;;;20.95;82.36
57232;BME280;43488;46.934;8.276;2023-09-19T17:33:01;96485.56;;;20.82;81.90
57232;BME280;43488;46.934;8.276;2023-09-19T17:35:32;96481.84;;;20.72;81.58
57232;BME280;43488;46.934;8.276;2023-09-19T17:38:00;96478.13;;;20.68;82.05
57232;BME280;43488;46.934;8.276;2023-09-19T17:40:38;96481.84;;;20.72;82.92
57232;BME280;43488;46.934;8.276;2023-09-19T17:43:06;96485.91;;;20.60;82.85
57232;BME280;43488;46.934;8.276;2023-09-19T17:45:34;96481.66;;;20.49;79.98
57232;BME280;43488;46.934;8.276;2023-09-19T17:48:01;96478.44;;;20.47;79.51
57232;BME280;43488;46.934;8.276;2023-09-19T17:50:29;96487.81;;;20.44;80.74